sensor_id;sensor_type;location;lat;lon;timestamp;P1;durP1;ratioP1;P2;durP2;ratioP2
12832;SDS011;6483;51.310;4.462;2023-03-01T00:01:29;17.17;;;10.10;;
12832;SDS011;6483;51.310;4.462;2023-03-01T00:03:58;15.77;;;10.70;;
12832;SDS011;6483;51.310;4.462;2023-03-01T00:06:25;17.13;;;11.00;;
12832;SDS011;6483;51.310;4.462;2023-03-01T00:08:54;14.33;;;9.77;;
12832;SDS011;6483;51.310;4.462;2023-03-01T00:11:25;12.30;;;8.33;;
12832;SDS011;6483;51.310;4.462;2023-03-01T00:13:53;15.97;;;9.87;;
12832;SDS011;6483;51.310;4.462;2023-03-01T00:16:25;15.17;;;9.73;;
12832;SDS011;6483;51.310;4.462;2023-03-01T00:18:56;14.97;;;9.40;;
12832;SDS011;6483;51.310;4.462;2023-03-01T00:21:22;14.77;;;9.50;;
12832;SDS011;6483;51.310;4.462;2023-03-01T00:23:48;13.47;;;9.20;;
12832;SDS011;6483;51.310;4.462;2023-03-01T00:26:16;18.33;;;8.87;;
12832;SDS011;6483;51.310;4.462;2023-03-01T00:28:43;16.73;;;10.00;;
12832;SDS011;6483;51.310;4.462;2023-03-01T00:31:13;13.83;;;9.03;;
12832;SDS011;6483;51.310;4.462;2023-03-01T00:33:43;13.50;;;9.07;;
12832;SDS011;6483;51.310;4.462;2023-03-01T00:36:11;15.47;;;9.10;;
12832;SDS011;6483;51.310;4.462;2023-03-01T00:38:44;13.50;;;8.77;;
12832;SDS011;6483;51.310;4.462;2023-03-01T00:41:11;12.97;;;9.70;;
12832;SDS011;6483;51.310;4.462;2023-03-01T00:43:46;15.80;;;10.13;;
12832;SDS011;6483;51.310;4.462;2023-03-01T00:46:13;15.90;;;8.90;;
12832;SDS011;6483;51.310;4.462;2023-03-01T00:48:41;16.27;;;9.47;;
12832;SDS011;6483;51.310;4.462;2023-03-01T00:51:09;14.33;;;9.00;;
12832;SDS011;6483;51.310;4.462;2023-03-01T00:53:37;16.73;;;9.37;;
12832;SDS011;6483;51.310;4.462;2023-03-01T00:56:05;15.37;;;9.27;;
12832;SDS011;6483;51.310;4.462;2023-03-01T00:58:32;15.50;;;9.40;;
12832;SDS011;6483;51.310;4.462;2023-03-01T01:01:12;12.57;;;8.90;;
12832;SDS011;6483;51.310;4.462;2023-03-01T01:03:50;14.97;;;8.80;;
12832;SDS011;6483;51.310;4.462;2023-03-01T01:06:27;15.47;;;8.70;;
12832;SDS011;6483;51.310;4.462;2023-03-01T01:09:12;11.93;;;8.70;;
12832;SDS011;6483;51.310;4.462;2023-03-01T01:11:46;15.57;;;9.17;;
12832;SDS011;6483;51.310;4.462;2023-03-01T01:14:14;13.10;;;8.73;;
12832;SDS011;6483;51.310;4.462;2023-03-01T01:16:44;13.07;;;8.30;;
12832;SDS011;6483;51.310;4.462;2023-03-01T01:19:16;15.67;;;8.70;;
12832;SDS011;6483;51.310;4.462;2023-03-01T01:21:42;16.40;;;9.87;;
12832;SDS011;6483;51.310;4.462;2023-03-01T01:24:08;31.17;;;16.93;;
12832;SDS011;6483;51.310;4.462;2023-03-01T01:26:35;28.13;;;15.07;;
12832;SDS011;6483;51.310;4.462;2023-03-01T01:29:01;20.03;;;12.43;;
12832;SDS011;6483;51.310;4.462;2023-03-01T01:31:28;14.60;;;10.40;;
12832;SDS011;6483;51.310;4.462;2023-03-01T01:33:55;14.83;;;10.30;;
12832;SDS011;6483;51.310;4.462;2023-03-01T01:36:21;14.63;;;9.60;;
12832;SDS011;6483;51.310;4.462;2023-03-01T01:38:51;14.90;;;10.83;;
12832;SDS011;6483;51.310;4.462;2023-03-01T01:41:21;14.27;;;10.27;;
12832;SDS011;6483;51.310;4.462;2023-03-01T01:43:48;18.63;;;10.80;;
12832;SDS011;6483;51.310;4.462;2023-03-01T01:46:35;13.73;;;9.67;;
12832;SDS011;6483;51.310;4.462;2023-03-01T01:49:12;19.43;;;11.33;;
12832;SDS011;6483;51.310;4.462;2023-03-01T01:51:58;16.87;;;10.73;;
12832;SDS011;6483;51.310;4.462;2023-03-01T01:54:37;12.67;;;9.30;;
12832;SDS011;6483;51.310;4.462;2023-03-01T01:57:16;13.10;;;9.23;;
12832;SDS011;6483;51.310;4.462;2023-03-01T01:59:46;15.23;;;9.83;;
12832;SDS011;6483;51.310;4.462;2023-03-01T02:02:18;14.13;;;9.10;;
12832;SDS011;6483;51.310;4.462;2023-03-01T02:04:48;13.87;;;9.83;;
12832;SDS011;6483;51.310;4.462;2023-03-01T02:07:20;15.27;;;9.60;;
12832;SDS011;6483;51.310;4.462;2023-03-01T02:09:48;13.03;;;9.43;;
12832;SDS011;6483;51.310;4.462;2023-03-01T02:12:18;13.30;;;9.60;;
12832;SDS011;6483;51.310;4.462;2023-03-01T02:14:48;13.13;;;8.40;;
12832;SDS011;6483;51.310;4.462;2023-03-01T02:17:14;13.80;;;9.40;;
12832;SDS011;6483;51.310;4.462;2023-03-01T02:19:52;13.77;;;9.20;;
12832;SDS011;6483;51.310;4.462;2023-03-01T02:22:30;14.23;;;9.80;;
12832;SDS011;6483;51.310;4.462;2023-03-01T02:28:40;15.23;;;9.77;;
12832;SDS011;6483;51.310;4.462;2023-03-01T02:30:53;13.43;;;9.30;;
12832;SDS011;6483;51.310;4.462;2023-03-01T02:33:40;14.20;;;9.30;;
12832;SDS011;6483;51.310;4.462;2023-03-01T02:36:09;14.80;;;10.07;;
12832;SDS011;6483;51.310;4.462;2023-03-01T02:38:42;13.40;;;9.20;;
12832;SDS011;6483;51.310;4.462;2023-03-01T02:41:15;13.57;;;9.27;;
12832;SDS011;6483;51.310;4.462;2023-03-01T02:43:43;18.43;;;10.00;;
12832;SDS011;6483;51.310;4.462;2023-03-01T02:46:20;16.77;;;9.77;;
12832;SDS011;6483;51.310;4.462;2023-03-01T02:56:49;15.13;;;9.47;;
12832;SDS011;6483;51.310;4.462;2023-03-01T02:59:16;15.67;;;10.17;;
12832;SDS011;6483;51.310;4.462;2023-03-01T03:01:45;16.70;;;10.67;;
12832;SDS011;6483;51.310;4.462;2023-03-01T03:04:16;13.93;;;10.20;;
12832;SDS011;6483;51.310;4.462;2023-03-01T03:06:46;13.47;;;9.23;;
12832;SDS011;6483;51.310;4.462;2023-03-01T03:09:14;13.93;;;9.93;;
12832;SDS011;6483;51.310;4.462;2023-03-01T03:11:41;15.63;;;10.37;;
12832;SDS011;6483;51.310;4.462;2023-03-01T03:14:11;15.30;;;9.80;;
12832;SDS011;6483;51.310;4.462;2023-03-01T03:16:42;18.47;;;9.97;;
12832;SDS011;6483;51.310;4.462;2023-03-01T03:19:08;17.20;;;10.63;;
12832;SDS011;6483;51.310;4.462;2023-03-01T03:21:38;14.67;;;9.60;;
12832;SDS011;6483;51.310;4.462;2023-03-01T03:24:04;14.90;;;9.73;;
12832;SDS011;6483;51.310;4.462;2023-03-01T03:26:30;15.93;;;10.00;;
12832;SDS011;6483;51.310;4.462;2023-03-01T03:28:56;15.80;;;10.33;;
12832;SDS011;6483;51.310;4.462;2023-03-01T03:31:23;14.97;;;10.40;;
12832;SDS011;6483;51.310;4.462;2023-03-01T03:33:49;14.87;;;10.67;;
12832;SDS011;6483;51.310;4.462;2023-03-01T03:36:16;14.10;;;9.80;;
12832;SDS011;6483;51.310;4.462;2023-03-01T03:38:43;16.13;;;10.63;;
12832;SDS011;6483;51.310;4.462;2023-03-01T03:41:11;19.07;;;10.27;;
12832;SDS011;6483;51.310;4.462;2023-03-01T03:43:38;18.57;;;11.27;;
12832;SDS011;6483;51.310;4.462;2023-03-01T03:46:05;20.73;;;11.67;;
12832;SDS011;6483;51.310;4.462;2023-03-01T03:48:39;18.40;;;12.70;;
12832;SDS011;6483;51.310;4.462;2023-03-01T03:51:11;19.43;;;11.73;;
12832;SDS011;6483;51.310;4.462;2023-03-01T03:53:45;17.27;;;11.70;;
12832;SDS011;6483;51.310;4.462;2023-03-01T03:56:11;17.37;;;11.67;;
12832;SDS011;6483;51.310;4.462;2023-03-01T03:58:38;18.90;;;12.03;;
12832;SDS011;6483;51.310;4.462;2023-03-01T04:01:04;17.80;;;11.43;;
12832;SDS011;6483;51.310;4.462;2023-03-01T04:03:30;17.10;;;11.77;;
12832;SDS011;6483;51.310;4.462;2023-03-01T04:05:58;21.67;;;12.43;;
12832;SDS011;6483;51.310;4.462;2023-03-01T04:08:24;18.47;;;11.73;;
12832;SDS011;6483;51.310;4.462;2023-03-01T04:10:56;18.37;;;12.47;;
12832;SDS011;6483;51.310;4.462;2023-03-01T04:13:24;19.47;;;12.63;;
12832;SDS011;6483;51.310;4.462;2023-03-01T04:15:54;16.43;;;11.53;;
12832;SDS011;6483;51.310;4.462;2023-03-01T04:18:21;18.67;;;11.60;;
12832;SDS011;6483;51.310;4.462;2023-03-01T04:20:48;20.30;;;13.00;;
12832;SDS011;6483;51.310;4.462;2023-03-01T04:23:15;19.13;;;12.60;;
12832;SDS011;6483;51.310;4.462;2023-03-01T04:28:30;19.13;;;12.23;;
12832;SDS011;6483;51.310;4.462;2023-03-01T04:31:38;19.70;;;12.17;;
12832;SDS011;6483;51.310;4.462;2023-03-01T04:33:57;17.80;;;11.57;;
12832;SDS011;6483;51.310;4.462;2023-03-01T04:36:25;18.87;;;12.10;;
12832;SDS011;6483;51.310;4.462;2023-03-01T04:38:52;26.10;;;13.17;;
12832;SDS011;6483;51.310;4.462;2023-03-01T04:41:20;18.07;;;11.73;;
12832;SDS011;6483;51.310;4.462;2023-03-01T04:43:48;19.23;;;12.37;;
12832;SDS011;6483;51.310;4.462;2023-03-01T04:46:16;18.90;;;12.33;;
12832;SDS011;6483;51.310;4.462;2023-03-01T04:48:43;18.50;;;11.97;;
12832;SDS011;6483;51.310;4.462;2023-03-01T04:51:12;18.57;;;11.97;;
12832;SDS011;6483;51.310;4.462;2023-03-01T04:53:38;16.10;;;11.30;;
12832;SDS011;6483;51.310;4.462;2023-03-01T04:56:05;21.73;;;12.33;;
12832;SDS011;6483;51.310;4.462;2023-03-01T04:58:31;18.93;;;11.83;;
12832;SDS011;6483;51.310;4.462;2023-03-01T05:01:21;15.77;;;10.23;;
12832;SDS011;6483;51.310;4.462;2023-03-01T05:03:47;19.00;;;12.67;;
12832;SDS011;6483;51.310;4.462;2023-03-01T05:06:16;16.47;;;11.27;;
12832;SDS011;6483;51.310;4.462;2023-03-01T05:08:46;18.83;;;12.33;;
12832;SDS011;6483;51.310;4.462;2023-03-01T05:11:13;18.17;;;11.47;;
12832;SDS011;6483;51.310;4.462;2023-03-01T05:13:42;16.53;;;11.80;;
12832;SDS011;6483;51.310;4.462;2023-03-01T05:16:07;20.33;;;13.30;;
12832;SDS011;6483;51.310;4.462;2023-03-01T05:18:37;19.20;;;12.27;;
12832;SDS011;6483;51.310;4.462;2023-03-01T05:23:31;18.77;;;11.73;;
12832;SDS011;6483;51.310;4.462;2023-03-01T05:25:59;20.93;;;12.93;;
12832;SDS011;6483;51.310;4.462;2023-03-01T05:28:27;18.10;;;11.70;;
12832;SDS011;6483;51.310;4.462;2023-03-01T05:30:55;20.17;;;12.67;;
12832;SDS011;6483;51.310;4.462;2023-03-01T05:33:22;20.07;;;13.03;;
12832;SDS011;6483;51.310;4.462;2023-03-01T05:35:48;21.73;;;13.90;;
12832;SDS011;6483;51.310;4.462;2023-03-01T05:38:18;21.33;;;14.27;;
12832;SDS011;6483;51.310;4.462;2023-03-01T05:40:47;20.17;;;13.73;;
12832;SDS011;6483;51.310;4.462;2023-03-01T05:43:14;26.40;;;15.67;;
12832;SDS011;6483;51.310;4.462;2023-03-01T05:45:41;34.73;;;18.90;;
12832;SDS011;6483;51.310;4.462;2023-03-01T05:48:08;27.97;;;15.93;;
12832;SDS011;6483;51.310;4.462;2023-03-01T05:50:39;25.27;;;14.93;;
12832;SDS011;6483;51.310;4.462;2023-03-01T05:53:14;26.43;;;15.87;;
12832;SDS011;6483;51.310;4.462;2023-03-01T05:55:46;27.03;;;15.90;;
12832;SDS011;6483;51.310;4.462;2023-03-01T05:58:19;21.63;;;13.73;;
12832;SDS011;6483;51.310;4.462;2023-03-01T06:00:51;19.60;;;13.33;;
12832;SDS011;6483;51.310;4.462;2023-03-01T06:03:17;21.53;;;13.13;;
12832;SDS011;6483;51.310;4.462;2023-03-01T06:05:43;19.80;;;12.83;;
12832;SDS011;6483;51.310;4.462;2023-03-01T06:08:10;18.60;;;11.40;;
12832;SDS011;6483;51.310;4.462;2023-03-01T06:10:37;18.43;;;11.83;;
12832;SDS011;6483;51.310;4.462;2023-03-01T06:13:05;25.33;;;11.73;;
12832;SDS011;6483;51.310;4.462;2023-03-01T06:15:34;21.43;;;11.73;;
12832;SDS011;6483;51.310;4.462;2023-03-01T06:18:00;16.30;;;10.83;;
12832;SDS011;6483;51.310;4.462;2023-03-01T06:20:27;19.67;;;11.70;;
12832;SDS011;6483;51.310;4.462;2023-03-01T06:22:54;18.67;;;11.93;;
12832;SDS011;6483;51.310;4.462;2023-03-01T06:25:22;18.63;;;11.87;;
12832;SDS011;6483;51.310;4.462;2023-03-01T06:27:49;18.43;;;11.47;;
12832;SDS011;6483;51.310;4.462;2023-03-01T06:30:17;20.53;;;12.47;;
12832;SDS011;6483;51.310;4.462;2023-03-01T06:32:44;18.23;;;11.37;;
12832;SDS011;6483;51.310;4.462;2023-03-01T06:35:11;17.87;;;11.80;;
12832;SDS011;6483;51.310;4.462;2023-03-01T06:37:41;18.47;;;12.20;;
12832;SDS011;6483;51.310;4.462;2023-03-01T06:40:08;20.20;;;12.60;;
12832;SDS011;6483;51.310;4.462;2023-03-01T06:42:36;15.77;;;10.93;;
12832;SDS011;6483;51.310;4.462;2023-03-01T06:45:07;19.50;;;12.00;;
12832;SDS011;6483;51.310;4.462;2023-03-01T06:47:34;19.93;;;11.40;;
12832;SDS011;6483;51.310;4.462;2023-03-01T06:50:03;18.47;;;11.53;;
12832;SDS011;6483;51.310;4.462;2023-03-01T06:52:29;17.53;;;11.13;;
12832;SDS011;6483;51.310;4.462;2023-03-01T06:54:55;19.90;;;12.37;;
12832;SDS011;6483;51.310;4.462;2023-03-01T06:57:21;22.67;;;12.40;;
12832;SDS011;6483;51.310;4.462;2023-03-01T06:59:47;21.23;;;12.33;;
12832;SDS011;6483;51.310;4.462;2023-03-01T07:02:16;19.73;;;12.30;;
12832;SDS011;6483;51.310;4.462;2023-03-01T07:04:44;19.00;;;11.83;;
12832;SDS011;6483;51.310;4.462;2023-03-01T07:07:13;20.97;;;12.07;;
12832;SDS011;6483;51.310;4.462;2023-03-01T07:09:39;19.77;;;11.40;;
12832;SDS011;6483;51.310;4.462;2023-03-01T07:12:08;19.27;;;12.60;;
12832;SDS011;6483;51.310;4.462;2023-03-01T07:14:34;22.23;;;12.67;;
12832;SDS011;6483;51.310;4.462;2023-03-01T07:17:00;20.10;;;11.90;;
12832;SDS011;6483;51.310;4.462;2023-03-01T07:19:25;19.67;;;12.17;;
12832;SDS011;6483;51.310;4.462;2023-03-01T07:21:51;24.90;;;12.60;;
12832;SDS011;6483;51.310;4.462;2023-03-01T07:24:17;19.37;;;12.00;;
12832;SDS011;6483;51.310;4.462;2023-03-01T07:26:42;20.20;;;12.20;;
12832;SDS011;6483;51.310;4.462;2023-03-01T07:29:09;20.37;;;10.87;;
12832;SDS011;6483;51.310;4.462;2023-03-01T07:31:35;21.37;;;12.17;;
12832;SDS011;6483;51.310;4.462;2023-03-01T07:34:07;18.27;;;11.60;;
12832;SDS011;6483;51.310;4.462;2023-03-01T07:36:33;21.03;;;12.40;;
12832;SDS011;6483;51.310;4.462;2023-03-01T07:38:59;19.77;;;11.90;;
12832;SDS011;6483;51.310;4.462;2023-03-01T07:41:30;19.10;;;12.10;;
12832;SDS011;6483;51.310;4.462;2023-03-01T07:43:59;21.30;;;12.10;;
12832;SDS011;6483;51.310;4.462;2023-03-01T07:46:24;20.00;;;12.77;;
12832;SDS011;6483;51.310;4.462;2023-03-01T07:48:50;20.37;;;13.23;;
12832;SDS011;6483;51.310;4.462;2023-03-01T07:51:16;19.03;;;12.47;;
12832;SDS011;6483;51.310;4.462;2023-03-01T07:53:41;19.13;;;12.80;;
12832;SDS011;6483;51.310;4.462;2023-03-01T07:56:08;18.47;;;11.97;;
12832;SDS011;6483;51.310;4.462;2023-03-01T07:58:38;20.57;;;12.93;;
12832;SDS011;6483;51.310;4.462;2023-03-01T08:01:06;24.17;;;13.30;;
12832;SDS011;6483;51.310;4.462;2023-03-01T08:03:34;23.07;;;12.50;;
12832;SDS011;6483;51.310;4.462;2023-03-01T08:06:04;20.73;;;13.07;;
12832;SDS011;6483;51.310;4.462;2023-03-01T08:08:31;20.03;;;12.87;;
12832;SDS011;6483;51.310;4.462;2023-03-01T08:11:02;19.77;;;12.80;;
12832;SDS011;6483;51.310;4.462;2023-03-01T08:13:29;20.80;;;13.57;;
12832;SDS011;6483;51.310;4.462;2023-03-01T08:16:00;19.40;;;12.63;;
12832;SDS011;6483;51.310;4.462;2023-03-01T08:18:34;18.43;;;12.10;;
12832;SDS011;6483;51.310;4.462;2023-03-01T08:21:07;18.00;;;12.17;;
12832;SDS011;6483;51.310;4.462;2023-03-01T08:23:49;18.87;;;12.53;;
12832;SDS011;6483;51.310;4.462;2023-03-01T08:26:15;20.30;;;11.63;;
12832;SDS011;6483;51.310;4.462;2023-03-01T08:28:43;17.40;;;11.97;;
12832;SDS011;6483;51.310;4.462;2023-03-01T08:33:54;16.53;;;11.47;;
12832;SDS011;6483;51.310;4.462;2023-03-01T08:36:23;18.93;;;11.43;;
12832;SDS011;6483;51.310;4.462;2023-03-01T08:38:53;19.20;;;11.87;;
12832;SDS011;6483;51.310;4.462;2023-03-01T08:41:22;16.43;;;11.53;;
12832;SDS011;6483;51.310;4.462;2023-03-01T08:43:48;19.10;;;11.53;;
12832;SDS011;6483;51.310;4.462;2023-03-01T08:46:14;15.97;;;10.90;;
12832;SDS011;6483;51.310;4.462;2023-03-01T08:48:46;15.50;;;10.83;;
12832;SDS011;6483;51.310;4.462;2023-03-01T08:51:16;16.00;;;9.67;;
12832;SDS011;6483;51.310;4.462;2023-03-01T08:53:47;10.53;;;8.10;;
12832;SDS011;6483;51.310;4.462;2023-03-01T08:56:13;12.20;;;7.93;;
12832;SDS011;6483;51.310;4.462;2023-03-01T08:58:43;8.83;;;6.63;;
12832;SDS011;6483;51.310;4.462;2023-03-01T09:01:17;10.63;;;7.57;;
12832;SDS011;6483;51.310;4.462;2023-03-01T09:03:46;13.37;;;7.90;;
12832;SDS011;6483;51.310;4.462;2023-03-01T09:06:15;9.07;;;6.37;;
12832;SDS011;6483;51.310;4.462;2023-03-01T09:08:42;9.57;;;6.20;;
12832;SDS011;6483;51.310;4.462;2023-03-01T09:11:13;10.57;;;5.73;;
12832;SDS011;6483;51.310;4.462;2023-03-01T09:13:42;7.90;;;5.83;;
12832;SDS011;6483;51.310;4.462;2023-03-01T09:16:10;6.90;;;5.53;;
12832;SDS011;6483;51.310;4.462;2023-03-01T09:18:43;6.50;;;5.43;;
12832;SDS011;6483;51.310;4.462;2023-03-01T09:21:13;5.67;;;5.07;;
12832;SDS011;6483;51.310;4.462;2023-03-01T09:23:43;7.13;;;5.53;;
12832;SDS011;6483;51.310;4.462;2023-03-01T09:26:18;8.63;;;5.60;;
12832;SDS011;6483;51.310;4.462;2023-03-01T09:28:46;10.25;;;5.15;;
12832;SDS011;6483;51.310;4.462;2023-03-01T09:31:13;5.40;;;4.90;;
12832;SDS011;6483;51.310;4.462;2023-03-01T09:33:40;6.75;;;5.40;;
12832;SDS011;6483;51.310;4.462;2023-03-01T09:36:09;7.80;;;5.38;;
12832;SDS011;6483;51.310;4.462;2023-03-01T09:38:40;7.70;;;5.50;;
12832;SDS011;6483;51.310;4.462;2023-03-01T09:41:24;6.80;;;5.10;;
12832;SDS011;6483;51.310;4.462;2023-03-01T09:43:52;6.43;;;5.32;;
12832;SDS011;6483;51.310;4.462;2023-03-01T09:46:42;7.40;;;5.10;;
12832;SDS011;6483;51.310;4.462;2023-03-01T09:49:19;6.10;;;5.38;;
12832;SDS011;6483;51.310;4.462;2023-03-01T09:52:11;6.32;;;4.68;;
12832;SDS011;6483;51.310;4.462;2023-03-01T09:54:57;5.63;;;4.40;;
12832;SDS011;6483;51.310;4.462;2023-03-01T09:57:27;9.13;;;5.13;;
12832;SDS011;6483;51.310;4.462;2023-03-01T10:00:03;6.13;;;5.10;;
12832;SDS011;6483;51.310;4.462;2023-03-01T10:05:19;5.85;;;4.55;;
12832;SDS011;6483;51.310;4.462;2023-03-01T10:10:50;6.57;;;5.10;;
12832;SDS011;6483;51.310;4.462;2023-03-01T10:16:14;6.47;;;4.95;;
12832;SDS011;6483;51.310;4.462;2023-03-01T10:18:46;8.43;;;4.88;;
12832;SDS011;6483;51.310;4.462;2023-03-01T10:21:20;5.10;;;4.60;;
12832;SDS011;6483;51.310;4.462;2023-03-01T10:23:46;6.97;;;5.35;;
12832;SDS011;6483;51.310;4.462;2023-03-01T10:26:25;6.40;;;4.82;;
12832;SDS011;6483;51.310;4.462;2023-03-01T10:29:06;5.82;;;4.75;;
12832;SDS011;6483;51.310;4.462;2023-03-01T10:34:18;6.07;;;4.40;;
12832;SDS011;6483;51.310;4.462;2023-03-01T10:36:50;5.57;;;4.35;;
12832;SDS011;6483;51.310;4.462;2023-03-01T10:39:23;6.00;;;4.20;;
12832;SDS011;6483;51.310;4.462;2023-03-01T10:42:35;5.85;;;4.82;;
12832;SDS011;6483;51.310;4.462;2023-03-01T10:44:57;6.93;;;4.60;;
12832;SDS011;6483;51.310;4.462;2023-03-01T10:47:41;5.40;;;4.45;;
12832;SDS011;6483;51.310;4.462;2023-03-01T10:50:50;8.02;;;4.45;;
12832;SDS011;6483;51.310;4.462;2023-03-01T10:53:04;5.68;;;4.25;;
12832;SDS011;6483;51.310;4.462;2023-03-01T10:55:43;6.13;;;4.28;;
12832;SDS011;6483;51.310;4.462;2023-03-01T10:58:17;6.10;;;4.35;;
12832;SDS011;6483;51.310;4.462;2023-03-01T11:00:55;6.60;;;4.60;;
12832;SDS011;6483;51.310;4.462;2023-03-01T11:03:44;7.07;;;4.80;;
12832;SDS011;6483;51.310;4.462;2023-03-01T11:06:27;5.97;;;4.47;;
12832;SDS011;6483;51.310;4.462;2023-03-01T11:08:56;5.82;;;4.38;;
12832;SDS011;6483;51.310;4.462;2023-03-01T11:11:34;5.45;;;4.43;;
12832;SDS011;6483;51.310;4.462;2023-03-01T11:14:03;7.00;;;4.40;;
12832;SDS011;6483;51.310;4.462;2023-03-01T11:16:40;5.93;;;3.72;;
12832;SDS011;6483;51.310;4.462;2023-03-01T11:21:35;7.97;;;4.20;;
12832;SDS011;6483;51.310;4.462;2023-03-01T11:24:06;5.97;;;4.63;;
12832;SDS011;6483;51.310;4.462;2023-03-01T11:26:40;4.85;;;3.85;;
12832;SDS011;6483;51.310;4.462;2023-03-01T11:29:15;5.32;;;3.65;;
12832;SDS011;6483;51.310;4.462;2023-03-01T11:32:17;3.90;;;3.42;;
12832;SDS011;6483;51.310;4.462;2023-03-01T11:34:50;4.68;;;3.95;;
12832;SDS011;6483;51.310;4.462;2023-03-01T11:37:39;4.13;;;3.45;;
12832;SDS011;6483;51.310;4.462;2023-03-01T11:51:43;4.68;;;3.67;;
12832;SDS011;6483;51.310;4.462;2023-03-01T11:54:29;4.00;;;3.60;;
12832;SDS011;6483;51.310;4.462;2023-03-01T12:19:52;4.95;;;4.03;;
12832;SDS011;6483;51.310;4.462;2023-03-01T12:22:38;7.75;;;4.53;;
12832;SDS011;6483;51.310;4.462;2023-03-01T12:28:23;5.28;;;4.45;;
12832;SDS011;6483;51.310;4.462;2023-03-01T12:31:23;5.55;;;4.40;;
12832;SDS011;6483;51.310;4.462;2023-03-01T12:40:12;4.90;;;4.40;;
12832;SDS011;6483;51.310;4.462;2023-03-01T12:46:09;8.63;;;5.40;;
12832;SDS011;6483;51.310;4.462;2023-03-01T12:49:19;4.70;;;4.20;;
12832;SDS011;6483;51.310;4.462;2023-03-01T12:52:00;5.00;;;3.85;;
12832;SDS011;6483;51.310;4.462;2023-03-01T12:54:36;5.78;;;4.10;;
12832;SDS011;6483;51.310;4.462;2023-03-01T12:57:21;5.75;;;4.20;;
12832;SDS011;6483;51.310;4.462;2023-03-01T13:00:45;5.90;;;4.70;;
12832;SDS011;6483;51.310;4.462;2023-03-01T13:06:02;4.80;;;3.78;;
12832;SDS011;6483;51.310;4.462;2023-03-01T13:08:50;4.47;;;3.80;;
12832;SDS011;6483;51.310;4.462;2023-03-01T13:11:21;4.78;;;4.03;;
12832;SDS011;6483;51.310;4.462;2023-03-01T13:13:48;7.35;;;4.22;;
12832;SDS011;6483;51.310;4.462;2023-03-01T13:17:01;4.75;;;3.88;;
12832;SDS011;6483;51.310;4.462;2023-03-01T13:21:37;5.63;;;4.28;;
12832;SDS011;6483;51.310;4.462;2023-03-01T13:24:23;5.47;;;3.83;;
12832;SDS011;6483;51.310;4.462;2023-03-01T13:29:52;5.10;;;3.95;;
12832;SDS011;6483;51.310;4.462;2023-03-01T13:32:26;4.80;;;4.30;;
12832;SDS011;6483;51.310;4.462;2023-03-01T13:35:06;7.18;;;3.80;;
12832;SDS011;6483;51.310;4.462;2023-03-01T13:37:51;5.78;;;4.28;;
12832;SDS011;6483;51.310;4.462;2023-03-01T13:45:22;5.95;;;4.10;;
12832;SDS011;6483;51.310;4.462;2023-03-01T13:48:26;4.70;;;4.18;;
12832;SDS011;6483;51.310;4.462;2023-03-01T13:50:53;6.45;;;4.38;;
12832;SDS011;6483;51.310;4.462;2023-03-01T13:53:26;4.28;;;3.88;;
12832;SDS011;6483;51.310;4.462;2023-03-01T13:56:06;6.15;;;3.97;;
12832;SDS011;6483;51.310;4.462;2023-03-01T13:58:33;6.07;;;4.03;;
12832;SDS011;6483;51.310;4.462;2023-03-01T14:01:20;5.40;;;3.75;;
12832;SDS011;6483;51.310;4.462;2023-03-01T14:03:48;6.18;;;4.30;;
12832;SDS011;6483;51.310;4.462;2023-03-01T14:08:44;5.15;;;4.03;;
12832;SDS011;6483;51.310;4.462;2023-03-01T14:20:25;4.43;;;4.03;;
12832;SDS011;6483;51.310;4.462;2023-03-01T14:22:58;5.72;;;4.60;;
12832;SDS011;6483;51.310;4.462;2023-03-01T14:26:03;7.53;;;5.25;;
12832;SDS011;6483;51.310;4.462;2023-03-01T14:28:32;7.45;;;4.93;;
12832;SDS011;6483;51.310;4.462;2023-03-01T14:30:59;6.78;;;5.22;;
12832;SDS011;6483;51.310;4.462;2023-03-01T14:33:28;16.95;;;7.22;;
12832;SDS011;6483;51.310;4.462;2023-03-01T14:35:56;7.03;;;4.97;;
12832;SDS011;6483;51.310;4.462;2023-03-01T14:38:35;7.65;;;4.30;;
12832;SDS011;6483;51.310;4.462;2023-03-01T14:41:14;5.35;;;4.53;;
12832;SDS011;6483;51.310;4.462;2023-03-01T14:43:52;5.35;;;4.70;;
12832;SDS011;6483;51.310;4.462;2023-03-01T14:46:40;5.13;;;4.20;;
12832;SDS011;6483;51.310;4.462;2023-03-01T14:49:14;10.88;;;4.47;;
12832;SDS011;6483;51.310;4.462;2023-03-01T14:51:45;5.85;;;4.50;;
12832;SDS011;6483;51.310;4.462;2023-03-01T14:54:27;7.32;;;4.35;;
12832;SDS011;6483;51.310;4.462;2023-03-01T14:57:24;6.80;;;4.15;;
12832;SDS011;6483;51.310;4.462;2023-03-01T14:59:52;6.60;;;4.30;;
12832;SDS011;6483;51.310;4.462;2023-03-01T15:02:24;6.57;;;3.75;;
12832;SDS011;6483;51.310;4.462;2023-03-01T15:04:52;5.90;;;4.18;;
12832;SDS011;6483;51.310;4.462;2023-03-01T15:07:23;5.57;;;4.13;;
12832;SDS011;6483;51.310;4.462;2023-03-01T15:09:54;4.53;;;4.13;;
12832;SDS011;6483;51.310;4.462;2023-03-01T15:12:40;4.32;;;3.92;;
12832;SDS011;6483;51.310;4.462;2023-03-01T15:15:19;4.35;;;3.90;;
12832;SDS011;6483;51.310;4.462;2023-03-01T15:18:05;4.72;;;4.32;;
12832;SDS011;6483;51.310;4.462;2023-03-01T15:20:42;5.13;;;4.57;;
12832;SDS011;6483;51.310;4.462;2023-03-01T15:23:19;8.73;;;4.20;;
12832;SDS011;6483;51.310;4.462;2023-03-01T15:25:50;7.35;;;4.32;;
12832;SDS011;6483;51.310;4.462;2023-03-01T15:28:30;5.43;;;4.10;;
12832;SDS011;6483;51.310;4.462;2023-03-01T15:33:45;4.47;;;3.92;;
12832;SDS011;6483;51.310;4.462;2023-03-01T15:39:03;7.95;;;4.50;;
12832;SDS011;6483;51.310;4.462;2023-03-01T15:42:04;5.30;;;4.60;;
12832;SDS011;6483;51.310;4.462;2023-03-01T15:44:25;5.30;;;4.80;;
12832;SDS011;6483;51.310;4.462;2023-03-01T15:46:55;4.75;;;4.18;;
12832;SDS011;6483;51.310;4.462;2023-03-01T15:52:06;5.97;;;4.70;;
12832;SDS011;6483;51.310;4.462;2023-03-01T15:54:44;7.10;;;5.07;;
12832;SDS011;6483;51.310;4.462;2023-03-01T15:57:33;5.70;;;4.35;;
12832;SDS011;6483;51.310;4.462;2023-03-01T16:00:17;6.57;;;4.80;;
12832;SDS011;6483;51.310;4.462;2023-03-01T16:02:46;6.70;;;4.80;;
12832;SDS011;6483;51.310;4.462;2023-03-01T16:05:15;5.28;;;4.78;;
12832;SDS011;6483;51.310;4.462;2023-03-01T16:07:45;9.57;;;5.63;;
12832;SDS011;6483;51.310;4.462;2023-03-01T16:10:10;5.35;;;4.85;;
12832;SDS011;6483;51.310;4.462;2023-03-01T16:12:36;11.07;;;4.43;;
12832;SDS011;6483;51.310;4.462;2023-03-01T16:15:12;8.52;;;4.90;;
12832;SDS011;6483;51.310;4.462;2023-03-01T16:17:47;9.65;;;6.78;;
12832;SDS011;6483;51.310;4.462;2023-03-01T16:20:14;6.72;;;4.90;;
12832;SDS011;6483;51.310;4.462;2023-03-01T16:22:44;7.75;;;5.13;;
12832;SDS011;6483;51.310;4.462;2023-03-01T16:25:14;11.75;;;5.40;;
12832;SDS011;6483;51.310;4.462;2023-03-01T16:27:42;7.18;;;5.68;;
12832;SDS011;6483;51.310;4.462;2023-03-01T16:30:09;8.18;;;5.40;;
12832;SDS011;6483;51.310;4.462;2023-03-01T16:32:39;7.45;;;5.28;;
12832;SDS011;6483;51.310;4.462;2023-03-01T16:35:11;7.90;;;4.65;;
12832;SDS011;6483;51.310;4.462;2023-03-01T16:37:42;9.23;;;4.70;;
12832;SDS011;6483;51.310;4.462;2023-03-01T16:42:49;9.93;;;5.15;;
12832;SDS011;6483;51.310;4.462;2023-03-01T16:45:24;9.60;;;4.97;;
12832;SDS011;6483;51.310;4.462;2023-03-01T16:47:52;5.38;;;4.50;;
12832;SDS011;6483;51.310;4.462;2023-03-01T16:50:18;5.67;;;4.63;;
12832;SDS011;6483;51.310;4.462;2023-03-01T16:52:44;5.88;;;5.05;;
12832;SDS011;6483;51.310;4.462;2023-03-01T16:55:10;7.90;;;5.85;;
12832;SDS011;6483;51.310;4.462;2023-03-01T16:57:48;8.67;;;5.50;;
12832;SDS011;6483;51.310;4.462;2023-03-01T17:00:14;9.77;;;6.00;;
12832;SDS011;6483;51.310;4.462;2023-03-01T17:02:50;7.50;;;5.33;;
12832;SDS011;6483;51.310;4.462;2023-03-01T17:05:17;7.80;;;5.80;;
12832;SDS011;6483;51.310;4.462;2023-03-01T17:07:45;8.93;;;6.27;;
12832;SDS011;6483;51.310;4.462;2023-03-01T17:10:11;8.97;;;6.10;;
12832;SDS011;6483;51.310;4.462;2023-03-01T17:12:37;13.43;;;7.27;;